sensor_id;sensor_type;location;lat;lon;timestamp;temperature;humidity
47114;DHT22;32867;51.556;6.832;2023-09-19T00:04:01;16.50;99.90
47114;DHT22;32867;51.556;6.832;2023-09-19T00:09:03;16.40;99.90
47114;DHT22;32867;51.556;6.832;2023-09-19T00:14:04;16.50;99.90
47114;DHT22;32867;51.556;6.832;2023-09-19T00:19:09;16.50;99.90
47114;DHT22;32867;51.556;6.832;2023-09-19T00:24:09;16.40;99.90
47114;DHT22;32867;51.556;6.832;2023-09-19T00:29:12;16.40;99.90
47114;DHT22;32867;51.556;6.832;2023-09-19T00:34:16;16.50;99.90
47114;DHT22;32867;51.556;6.832;2023-09-19T00:39:17;16.40;99.90
47114;DHT22;32867;51.556;6.832;2023-09-19T00:44:20;16.40;99.90
47114;DHT22;32867;51.556;6.832;2023-09-19T00:49:25;16.30;99.90
47114;DHT22;32867;51.556;6.832;2023-09-19T00:54:26;16.20;99.90
47114;DHT22;32867;51.556;6.832;2023-09-19T00:59:28;16.20;99.90
47114;DHT22;32867;51.556;6.832;2023-09-19T01:04:31;16.00;99.90
47114;DHT22;32867;51.556;6.832;2023-09-19T01:09:32;15.90;99.90
47114;DHT22;32867;51.556;6.832;2023-09-19T01:30:38;15.60;99.90
47114;DHT22;32867;51.556;6.832;2023-09-19T01:35:40;15.70;99.90
47114;DHT22;32867;51.556;6.832;2023-09-19T01:40:42;15.60;99.90
47114;DHT22;32867;51.556;6.832;2023-09-19T01:46:04;15.60;99.90
47114;DHT22;32867;51.556;6.832;2023-09-19T01:51:09;15.60;99.90
47114;DHT22;32867;51.556;6.832;2023-09-19T01:56:21;15.50;99.90
47114;DHT22;32867;51.556;6.832;2023-09-19T02:01:24;15.40;99.90
47114;DHT22;32867;51.556;6.832;2023-09-19T02:06:25;15.50;99.90
47114;DHT22;32867;51.556;6.832;2023-09-19T02:11:26;15.30;99.90
47114;DHT22;32867;51.556;6.832;2023-09-19T02:16:26;15.30;99.90
47114;DHT22;32867;51.556;6.832;2023-09-19T02:21:29;15.20;99.90
47114;DHT22;32867;51.556;6.832;2023-09-19T02:26:30;15.20;99.90
47114;DHT22;32867;51.556;6.832;2023-09-19T02:31:30;15.10;99.90
47114;DHT22;32867;51.556;6.832;2023-09-19T02:36:31;15.10;99.90
47114;DHT22;32867;51.556;6.832;2023-09-19T02:41:32;15.00;99.90
47114;DHT22;32867;51.556;6.832;2023-09-19T02:46:34;15.00;99.90
47114;DHT22;32867;51.556;6.832;2023-09-19T02:51:37;15.10;99.90
47114;DHT22;32867;51.556;6.832;2023-09-19T02:56:37;15.20;99.90
47114;DHT22;32867;51.556;6.832;2023-09-19T03:01:38;15.20;99.90
47114;DHT22;32867;51.556;6.832;2023-09-19T03:06:39;15.20;99.90
47114;DHT22;32867;51.556;6.832;2023-09-19T03:11:40;15.20;99.90
47114;DHT22;32867;51.556;6.832;2023-09-19T03:16:43;15.10;99.90
47114;DHT22;32867;51.556;6.832;2023-09-19T03:21:46;15.20;99.90
47114;DHT22;32867;51.556;6.832;2023-09-19T03:26:46;15.10;99.90
47114;DHT22;32867;51.556;6.832;2023-09-19T03:31:49;15.10;99.90
47114;DHT22;32867;51.556;6.832;2023-09-19T03:36:49;15.10;99.90
47114;DHT22;32867;51.556;6.832;2023-09-19T03:41:50;15.00;99.90
47114;DHT22;32867;51.556;6.832;2023-09-19T03:46:51;15.00;99.90
47114;DHT22;32867;51.556;6.832;2023-09-19T03:51:52;15.10;99.90
47114;DHT22;32867;51.556;6.832;2023-09-19T03:56:53;15.10;99.90
47114;DHT22;32867;51.556;6.832;2023-09-19T04:01:54;15.10;99.90
47114;DHT22;32867;51.556;6.832;2023-09-19T04:06:57;15.00;99.90
47114;DHT22;32867;51.556;6.832;2023-09-19T04:11:59;15.10;99.90
47114;DHT22;32867;51.556;6.832;2023-09-19T04:16:59;15.20;99.90
47114;DHT22;32867;51.556;6.832;2023-09-19T04:22:01;15.30;99.90
47114;DHT22;32867;51.556;6.832;2023-09-19T04:27:02;15.40;99.90
47114;DHT22;32867;51.556;6.832;2023-09-19T04:32:03;15.10;99.90
47114;DHT22;32867;51.556;6.832;2023-09-19T04:37:04;15.20;99.90
47114;DHT22;32867;51.556;6.832;2023-09-19T04:42:06;15.20;99.90
47114;DHT22;32867;51.556;6.832;2023-09-19T04:47:06;15.20;99.90
47114;DHT22;32867;51.556;6.832;2023-09-19T04:52:07;15.30;99.90
47114;DHT22;32867;51.556;6.832;2023-09-19T04:57:08;15.20;99.90
47114;DHT22;32867;51.556;6.832;2023-09-19T05:02:08;15.10;99.90
47114;DHT22;32867;51.556;6.832;2023-09-19T05:07:09;15.10;99.90
47114;DHT22;32867;51.556;6.832;2023-09-19T05:12:11;15.00;99.90
47114;DHT22;32867;51.556;6.832;2023-09-19T05:17:11;15.10;99.90
47114;DHT22;32867;51.556;6.832;2023-09-19T05:22:13;15.00;99.90
47114;DHT22;32867;51.556;6.832;2023-09-19T05:27:14;15.00;99.90
47114;DHT22;32867;51.556;6.832;2023-09-19T05:32:17;15.00;99.90
47114;DHT22;32867;51.556;6.832;2023-09-19T05:37:20;15.00;99.90
47114;DHT22;32867;51.556;6.832;2023-09-19T05:42:21;15.10;99.90
47114;DHT22;32867;51.556;6.832;2023-09-19T05:47:21;15.00;99.90
47114;DHT22;32867;51.556;6.832;2023-09-19T05:52:23;15.30;99.90
47114;DHT22;32867;51.556;6.832;2023-09-19T05:57:23;15.30;99.90
47114;DHT22;32867;51.556;6.832;2023-09-19T06:02:25;15.10;99.90
47114;DHT22;32867;51.556;6.832;2023-09-19T06:07:30;15.20;99.90
47114;DHT22;32867;51.556;6.832;2023-09-19T06:12:40;15.30;99.90
47114;DHT22;32867;51.556;6.832;2023-09-19T06:17:48;15.40;99.90
47114;DHT22;32867;51.556;6.832;2023-09-19T06:22:49;15.40;99.90
47114;DHT22;32867;51.556;6.832;2023-09-19T06:27:52;15.30;99.90
47114;DHT22;32867;51.556;6.832;2023-09-19T06:32:58;15.60;99.90
47114;DHT22;32867;51.556;6.832;2023-09-19T06:38:01;15.40;99.90
47114;DHT22;32867;51.556;6.832;2023-09-19T06:43:05;15.50;99.90
47114;DHT22;32867;51.556;6.832;2023-09-19T06:48:06;15.50;99.90
47114;DHT22;32867;51.556;6.832;2023-09-19T06:53:07;15.50;99.90
47114;DHT22;32867;51.556;6.832;2023-09-19T06:58:08;15.60;99.90
47114;DHT22;32867;51.556;6.832;2023-09-19T07:03:09;15.40;99.90
47114;DHT22;32867;51.556;6.832;2023-09-19T07:08:11;15.50;99.90
47114;DHT22;32867;51.556;6.832;2023-09-19T07:13:12;15.60;99.90
47114;DHT22;32867;51.556;6.832;2023-09-19T07:18:14;15.50;99.90
47114;DHT22;32867;51.556;6.832;2023-09-19T07:23:21;15.80;99.90
47114;DHT22;32867;51.556;6.832;2023-09-19T07:28:23;16.00;99.90
47114;DHT22;32867;51.556;6.832;2023-09-19T07:33:24;16.00;99.90
47114;DHT22;32867;51.556;6.832;2023-09-19T07:38:27;15.90;99.90
47114;DHT22;32867;51.556;6.832;2023-09-19T07:43:27;15.90;99.90
47114;DHT22;32867;51.556;6.832;2023-09-19T07:48:28;15.70;99.90
47114;DHT22;32867;51.556;6.832;2023-09-19T07:53:29;15.70;99.90
47114;DHT22;32867;51.556;6.832;2023-09-19T07:58:30;15.60;99.90
47114;DHT22;32867;51.556;6.832;2023-09-19T08:03:32;15.70;99.90
47114;DHT22;32867;51.556;6.832;2023-09-19T08:08:33;15.70;99.90
47114;DHT22;32867;51.556;6.832;2023-09-19T08:13:41;15.70;99.90
47114;DHT22;32867;51.556;6.832;2023-09-19T08:18:47;15.80;99.90
47114;DHT22;32867;51.556;6.832;2023-09-19T08:23:48;16.10;99.90
47114;DHT22;32867;51.556;6.832;2023-09-19T08:28:49;16.20;99.90
47114;DHT22;32867;51.556;6.832;2023-09-19T08:33:51;16.60;99.90
47114;DHT22;32867;51.556;6.832;2023-09-19T08:38:53;16.80;99.90
47114;DHT22;32867;51.556;6.832;2023-09-19T08:43:53;16.80;99.90
47114;DHT22;32867;51.556;6.832;2023-09-19T08:49:04;17.10;99.90
47114;DHT22;32867;51.556;6.832;2023-09-19T08:54:09;17.20;99.90
47114;DHT22;32867;51.556;6.832;2023-09-19T08:59:14;17.30;99.90
47114;DHT22;32867;51.556;6.832;2023-09-19T09:04:16;17.30;99.90
47114;DHT22;32867;51.556;6.832;2023-09-19T09:09:17;17.20;99.90
47114;DHT22;32867;51.556;6.832;2023-09-19T09:14:20;17.50;99.90
47114;DHT22;32867;51.556;6.832;2023-09-19T09:19:21;17.40;99.90
47114;DHT22;32867;51.556;6.832;2023-09-19T09:24:31;17.50;99.90
47114;DHT22;32867;51.556;6.832;2023-09-19T09:29:48;17.40;99.90
47114;DHT22;32867;51.556;6.832;2023-09-19T09:34:57;17.60;99.90
47114;DHT22;32867;51.556;6.832;2023-09-19T09:40:02;17.80;99.90
47114;DHT22;32867;51.556;6.832;2023-09-19T09:45:29;17.80;99.90
47114;DHT22;32867;51.556;6.832;2023-09-19T09:50:36;17.50;99.90
47114;DHT22;32867;51.556;6.832;2023-09-19T09:56:08;18.20;99.90
47114;DHT22;32867;51.556;6.832;2023-09-19T10:01:10;18.20;99.90
47114;DHT22;32867;51.556;6.832;2023-09-19T10:06:13;18.00;99.90
47114;DHT22;32867;51.556;6.832;2023-09-19T10:11:25;17.90;99.90
47114;DHT22;32867;51.556;6.832;2023-09-19T10:16:30;18.00;99.90
47114;DHT22;32867;51.556;6.832;2023-09-19T10:21:33;18.30;99.90
47114;DHT22;32867;51.556;6.832;2023-09-19T10:26:37;18.80;99.90
47114;DHT22;32867;51.556;6.832;2023-09-19T10:31:39;18.40;99.90
47114;DHT22;32867;51.556;6.832;2023-09-19T10:36:47;17.90;99.90
47114;DHT22;32867;51.556;6.832;2023-09-19T10:41:53;18.20;99.90
47114;DHT22;32867;51.556;6.832;2023-09-19T10:46:59;18.60;99.90
47114;DHT22;32867;51.556;6.832;2023-09-19T10:52:00;18.80;99.90
47114;DHT22;32867;51.556;6.832;2023-09-19T10:57:02;19.10;99.90
47114;DHT22;32867;51.556;6.832;2023-09-19T11:02:18;20.00;99.90
47114;DHT22;32867;51.556;6.832;2023-09-19T11:07:18;19.60;99.90
47114;DHT22;32867;51.556;6.832;2023-09-19T11:17:37;19.90;99.90
47114;DHT22;32867;51.556;6.832;2023-09-19T11:33:28;19.90;99.90
47114;DHT22;32867;51.556;6.832;2023-09-19T11:43:52;19.90;99.90
47114;DHT22;32867;51.556;6.832;2023-09-19T11:49:07;19.30;99.90
47114;DHT22;32867;51.556;6.832;2023-09-19T11:54:14;19.60;99.90
47114;DHT22;32867;51.556;6.832;2023-09-19T11:59:22;19.90;99.90
47114;DHT22;32867;51.556;6.832;2023-09-19T12:09:39;20.40;99.90
47114;DHT22;32867;51.556;6.832;2023-09-19T12:14:50;20.30;99.90
47114;DHT22;32867;51.556;6.832;2023-09-19T12:19:56;20.40;99.90
47114;DHT22;32867;51.556;6.832;2023-09-19T12:25:06;20.80;99.90
47114;DHT22;32867;51.556;6.832;2023-09-19T12:30:08;21.00;99.90
47114;DHT22;32867;51.556;6.832;2023-09-19T12:35:10;20.80;99.90
47114;DHT22;32867;51.556;6.832;2023-09-19T12:40:21;20.60;99.90
47114;DHT22;32867;51.556;6.832;2023-09-19T12:45:24;20.50;99.90
47114;DHT22;32867;51.556;6.832;2023-09-19T12:50:25;20.40;99.90
47114;DHT22;32867;51.556;6.832;2023-09-19T12:55:30;21.20;99.90
47114;DHT22;32867;51.556;6.832;2023-09-19T13:00:45;21.40;99.40
47114;DHT22;32867;51.556;6.832;2023-09-19T13:05:57;20.70;99.90
47114;DHT22;32867;51.556;6.832;2023-09-19T13:16:13;20.80;99.90
47114;DHT22;32867;51.556;6.832;2023-09-19T13:26:28;21.10;99.90
47114;DHT22;32867;51.556;6.832;2023-09-19T13:31:29;21.40;99.90
47114;DHT22;32867;51.556;6.832;2023-09-19T13:36:29;21.40;99.90
47114;DHT22;32867;51.556;6.832;2023-09-19T13:41:30;20.80;99.90
47114;DHT22;32867;51.556;6.832;2023-09-19T13:46:32;21.00;99.90
47114;DHT22;32867;51.556;6.832;2023-09-19T13:51:35;20.80;99.90
47114;DHT22;32867;51.556;6.832;2023-09-19T13:56:35;20.40;99.90
47114;DHT22;32867;51.556;6.832;2023-09-19T14:01:37;20.40;99.90
47114;DHT22;32867;51.556;6.832;2023-09-19T14:06:41;20.30;99.90
47114;DHT22;32867;51.556;6.832;2023-09-19T14:11:42;20.20;99.90
47114;DHT22;32867;51.556;6.832;2023-09-19T14:16:47;20.40;99.90
47114;DHT22;32867;51.556;6.832;2023-09-19T14:21:48;20.20;99.90
47114;DHT22;32867;51.556;6.832;2023-09-19T14:26:49;20.30;99.90
47114;DHT22;32867;51.556;6.832;2023-09-19T14:31:50;20.10;99.90
47114;DHT22;32867;51.556;6.832;2023-09-19T14:36:52;19.90;99.90
47114;DHT22;32867;51.556;6.832;2023-09-19T14:41:54;19.90;99.90
47114;DHT22;32867;51.556;6.832;2023-09-19T14:46:55;20.00;99.90
47114;DHT22;32867;51.556;6.832;2023-09-19T14:51:56;19.90;99.90
47114;DHT22;32867;51.556;6.832;2023-09-19T14:56:56;19.80;99.90
47114;DHT22;32867;51.556;6.832;2023-09-19T15:02:05;19.80;99.90
47114;DHT22;32867;51.556;6.832;2023-09-19T15:07:05;19.70;99.90
47114;DHT22;32867;51.556;6.832;2023-09-19T15:12:06;19.80;99.90
47114;DHT22;32867;51.556;6.832;2023-09-19T15:17:07;19.50;99.90
47114;DHT22;32867;51.556;6.832;2023-09-19T15:22:08;19.70;99.90
47114;DHT22;32867;51.556;6.832;2023-09-19T15:27:09;19.80;99.90
47114;DHT22;32867;51.556;6.832;2023-09-19T15:32:09;19.60;99.90
47114;DHT22;32867;51.556;6.832;2023-09-19T15:37:10;19.90;99.90
47114;DHT22;32867;51.556;6.832;2023-09-19T15:42:11;20.10;99.90
47114;DHT22;32867;51.556;6.832;2023-09-19T15:47:12;20.00;99.90
47114;DHT22;32867;51.556;6.832;2023-09-19T15:52:13;20.00;99.90
47114;DHT22;32867;51.556;6.832;2023-09-19T15:57:15;20.20;99.90
47114;DHT22;32867;51.556;6.832;2023-09-19T16:02:15;20.00;99.90
47114;DHT22;32867;51.556;6.832;2023-09-19T16:07:17;19.90;99.90
47114;DHT22;32867;51.556;6.832;2023-09-19T16:12:19;20.10;99.90
47114;DHT22;32867;51.556;6.832;2023-09-19T16:17:20;19.60;99.90
47114;DHT22;32867;51.556;6.832;2023-09-19T16:22:20;19.70;99.90
47114;DHT22;32867;51.556;6.832;2023-09-19T16:27:21;19.70;99.90
47114;DHT22;32867;51.556;6.832;2023-09-19T16:32:22;19.80;99.90
47114;DHT22;32867;51.556;6.832;2023-09-19T16:37:22;19.70;99.90
47114;DHT22;32867;51.556;6.832;2023-09-19T16:42:23;19.80;99.90
47114;DHT22;32867;51.556;6.832;2023-09-19T16:47:24;19.70;99.90
47114;DHT22;32867;51.556;6.832;2023-09-19T16:52:25;19.70;99.90
47114;DHT22;32867;51.556;6.832;2023-09-19T16:57:26;19.70;99.90
47114;DHT22;32867;51.556;6.832;2023-09-19T17:02:40;19.80;99.90
47114;DHT22;32867;51.556;6.832;2023-09-19T17:07:54;19.60;99.90
47114;DHT22;32867;51.556;6.832;2023-09-19T17:12:55;19.50;99.90
47114;DHT22;32867;51.556;6.832;2023-09-19T17:17:56;19.40;99.90
47114;DHT22;32867;51.556;6.832;2023-09-19T17:22:58;19.50;99.90
47114;DHT22;32867;51.556;6.832;2023-09-19T17:27:58;19.50;99.90
47114;DHT22;32867;51.556;6.832;2023-09-19T17:32:59;19.40;99.90
47114;DHT22;32867;51.556;6.832;2023-09-19T17:38:00;19.40;99.90
47114;DHT22;32867;51.556;6.832;2023-09-19T17:43:04;19.30;99.90
47114;DHT22;32867;51.556;6.832;2023-09-19T17:48:05;19.20;99.90
47114;DHT22;32867;51.556;6.832;2023-09-19T17:53:07;19.40;99.90
47114;DHT22;32867;51.556;6.832;2023-09-19T17:58:08;19.50;99.90
47114;DHT22;32867;51.556;6.832;2023-09-19T18:03:11;19.30;99.90
47114;DHT22;32867;51.556;6.832;2023-09-19T18:08:12;19.20;99.90
47114;DHT22;32867;51.556;6.832;2023-09-19T18:13:17;19.30;99.90
47114;DHT22;32867;51.556;6.832;2023-09-19T18:18:34;19.10;99.90
47114;DHT22;32867;51.556;6.832;2023-09-19T18:23:45;19.30;99.90
47114;DHT22;32867;51.556;6.832;2023-09-19T18:28:46;19.20;99.90
47114;DHT22;32867;51.556;6.832;2023-09-19T18:33:51;19.10;99.90
47114;DHT22;32867;51.556;6.832;2023-09-19T18:39:00;19.20;99.90
47114;DHT22;32867;51.556;6.832;2023-09-19T18:44:00;19.20;99.90
47114;DHT22;32867;51.556;6.832;2023-09-19T18:49:04;19.30;99.90
47114;DHT22;32867;51.556;6.832;2023-09-19T18:54:06;19.10;99.90
47114;DHT22;32867;51.556;6.832;2023-09-19T18:59:08;19.00;99.90
47114;DHT22;32867;51.556;6.832;2023-09-19T19:04:10;19.00;99.90
47114;DHT22;32867;51.556;6.832;2023-09-19T19:09:12;19.10;99.90
47114;DHT22;32867;51.556;6.832;2023-09-19T19:14:13;19.10;99.90
47114;DHT22;32867;51.556;6.832;2023-09-19T19:19:14;19.10;99.90
47114;DHT22;32867;51.556;6.832;2023-09-19T19:24:17;19.10;99.90
47114;DHT22;32867;51.556;6.832;2023-09-19T19:29:21;19.00;99.90
47114;DHT22;32867;51.556;6.832;2023-09-19T19:34:22;19.00;99.90
47114;DHT22;32867;51.556;6.832;2023-09-19T19:39:26;19.00;99.90
47114;DHT22;32867;51.556;6.832;2023-09-19T19:44:27;19.10;99.90
47114;DHT22;32867;51.556;6.832;2023-09-19T19:49:28;18.90;99.90
47114;DHT22;32867;51.556;6.832;2023-09-19T19:54:30;19.00;99.90
47114;DHT22;32867;51.556;6.832;2023-09-19T19:59:32;19.00;99.90
47114;DHT22;32867;51.556;6.832;2023-09-19T20:04:33;19.00;99.90
47114;DHT22;32867;51.556;6.832;2023-09-19T20:09:35;18.90;99.90
47114;DHT22;32867;51.556;6.832;2023-09-19T20:14:41;18.90;99.90
47114;DHT22;32867;51.556;6.832;2023-09-19T20:19:42;18.90;99.90
47114;DHT22;32867;51.556;6.832;2023-09-19T20:24:43;18.70;99.90
47114;DHT22;32867;51.556;6.832;2023-09-19T20:29:44;18.90;99.90
47114;DHT22;32867;51.556;6.832;2023-09-19T20:34:56;18.80;99.90
47114;DHT22;32867;51.556;6.832;2023-09-19T20:40:01;19.00;99.90
47114;DHT22;32867;51.556;6.832;2023-09-19T20:45:11;18.80;99.90
47114;DHT22;32867;51.556;6.832;2023-09-19T20:50:15;18.60;99.90
47114;DHT22;32867;51.556;6.832;2023-09-19T20:55:16;18.70;99.90
47114;DHT22;32867;51.556;6.832;2023-09-19T21:00:18;18.70;99.90
47114;DHT22;32867;51.556;6.832;2023-09-19T21:05:21;18.90;99.90
47114;DHT22;32867;51.556;6.832;2023-09-19T21:10:22;18.80;99.90
47114;DHT22;32867;51.556;6.832;2023-09-19T21:15:25;18.90;99.90
47114;DHT22;32867;51.556;6.832;2023-09-19T21:20:26;18.90;99.90
47114;DHT22;32867;51.556;6.832;2023-09-19T21:25:26;18.80;99.90
47114;DHT22;32867;51.556;6.832;2023-09-19T21:30:27;18.90;99.90
47114;DHT22;32867;51.556;6.832;2023-09-19T21:35:28;18.80;99.90
47114;DHT22;32867;51.556;6.832;2023-09-19T21:40:29;19.00;99.90
47114;DHT22;32867;51.556;6.832;2023-09-19T21:45:34;19.00;99.90
47114;DHT22;32867;51.556;6.832;2023-09-19T21:50:36;18.90;99.90
47114;DHT22;32867;51.556;6.832;2023-09-19T21:55:37;18.70;99.90
47114;DHT22;32867;51.556;6.832;2023-09-19T22:00:37;18.90;99.90
47114;DHT22;32867;51.556;6.832;2023-09-19T22:05:40;19.00;99.90
47114;DHT22;32867;51.556;6.832;2023-09-19T22:10:46;18.90;99.90
47114;DHT22;32867;51.556;6.832;2023-09-19T22:15:48;18.90;99.90
47114;DHT22;32867;51.556;6.832;2023-09-19T22:20:49;18.90;99.90
47114;DHT22;32867;51.556;6.832;2023-09-19T22:25:59;18.90;99.90
47114;DHT22;32867;51.556;6.832;2023-09-19T22:31:14;18.90;99.90
47114;DHT22;32867;51.556;6.832;2023-09-19T22:36:19;18.90;99.90
47114;DHT22;32867;51.556;6.832;2023-09-19T22:41:52;18.90;99.90
47114;DHT22;32867;51.556;6.832;2023-09-19T22:46:53;18.90;99.90
47114;DHT22;32867;51.556;6.832;2023-09-19T22:51:55;18.90;99.90
47114;DHT22;32867;51.556;6.832;2023-09-19T22:56:59;18.90;99.90
47114;DHT22;32867;51.556;6.832;2023-09-19T23:02:02;18.80;99.90
47114;DHT22;32867;51.556;6.832;2023-09-19T23:07:06;18.80;99.90
47114;DHT22;32867;51.556;6.832;2023-09-19T23:12:12;18.70;99.90
47114;DHT22;32867;51.556;6.832;2023-09-19T23:17:19;18.70;99.90
47114;DHT22;32867;51.556;6.832;2023-09-19T23:22:23;18.80;99.90
47114;DHT22;32867;51.556;6.832;2023-09-19T23:27:25;18.70;99.90
47114;DHT22;32867;51.556;6.832;2023-09-19T23:32:33;18.70;99.90
47114;DHT22;32867;51.556;6.832;2023-09-19T23:37:34;18.80;99.90
47114;DHT22;32867;51.556;6.832;2023-09-19T23:42:35;18.70;99.90
47114;DHT22;32867;51.556;6.832;2023-09-19T23:47:36;18.80;99.90
47114;DHT22;32867;51.556;6.832;2023-09-19T23:52:39;18.70;99.90
47114;DHT22;32867;51.556;6.832;2023-09-19T23:57:39;18.60;99.90
